Time;durP1;ratioP1;P1;durP2;ratioP2;P2;SDS_P1;SDS_P2;PMS_P1;PMS_P2;Temp;Humidity;BMP_temperature;BMP_pressure;BME280_temperature;BME280_humidity;BME280_pressure;Samples;Min_cycle;Max_cycle;Signal;HPM_P1;HPM_P2
2022/10/28 00:01:21;;;;;;;;;25.20;25.00;;;;;14.53;63.91;99904.53;6094246;28;96273;-62
2022/10/28 00:04:24;;;;;;;;;28.75;25.25;;;;;14.46;63.59;99901.06;6090111;28;97326;-62
2022/10/28 00:07:29;;;;;;;;;28.00;26.00;;;;;14.36;63.20;99895.31;6094016;28;96932;-63
2022/10/28 00:10:32;;;;;;;;;26.33;25.00;;;;;14.28;62.45;99895.53;6093204;28;96640;-61
2022/10/28 00:13:37;;;;;;;;;27.00;24.80;;;;;14.20;64.31;99888.50;6093894;28;96323;-62
2022/10/28 00:16:40;;;;;;;;;28.60;27.60;;;;;14.33;63.27;99901.94;6094719;28;96331;-62
2022/10/28 00:19:43;;;;;;;;;29.00;25.00;;;;;14.36;63.92;99905.28;6094333;28;96297;-62
2022/10/28 00:22:48;;;;;;;;;30.00;25.60;;;;;14.39;63.00;99902.16;6095154;28;96388;-62
2022/10/28 00:25:52;;;;;;;;;28.00;26.00;;;;;14.46;64.71;99902.94;6097852;28;96667;-62
2022/10/28 00:28:57;;;;;;;;;27.40;25.40;;;;;14.48;64.14;99889.97;6098696;28;96750;-61
2022/10/28 00:32:00;;;;;;;;;26.00;24.00;;;;;14.46;66.56;99887.50;6081065;28;96678;-61
2022/10/28 00:35:05;;;;;;;;;26.00;24.20;;;;;14.42;67.27;99878.09;6097752;28;96952;-62
2022/10/28 00:38:09;;;;;;;;;28.00;25.00;;;;;14.37;66.77;99877.94;6096371;28;97532;-63
2022/10/28 00:41:15;;;;;;;;;27.50;27.00;;;;;14.30;65.75;99877.16;6097812;28;96571;-62
2022/10/28 00:44:47;;;;;;;;;25.00;23.00;;;;;14.24;65.08;99867.19;6098024;28;98152;-61
2022/10/28 00:47:54;;;;;;;;;25.00;22.00;;;;;14.20;64.57;99855.97;6097616;28;96380;-61
2022/10/28 00:50:59;;;;;;;;;25.75;22.50;;;;;14.19;64.25;99856.16;6097385;28;96265;-61
2022/10/28 00:54:05;;;;;;;;;26.00;24.00;;;;;14.19;64.00;99867.00;6097597;28;96663;-61
2022/10/28 00:57:12;;;;;;;;;24.50;22.00;;;;;14.20;63.99;99860.53;6099193;28;96274;-61
2022/10/28 01:00:16;;;;;;;;;25.60;22.60;;;;;14.17;63.74;99859.09;6097917;28;96318;-62
2022/10/28 01:03:20;;;;;;;;;24.00;22.00;;;;;14.08;64.23;99856.88;6097511;28;96280;-63
2022/10/28 01:06:26;;;;;;;;;23.40;22.00;;;;;14.01;64.41;99856.13;6106226;28;96545;-62
2022/10/28 01:09:31;;;;;;;;;25.50;23.75;;;;;14.00;64.30;99858.00;6096543;28;96907;-64
2022/10/28 01:12:45;;;;;;;;;26.40;25.00;;;;;13.98;65.17;99848.41;6091245;28;96281;-61
2022/10/28 01:15:56;;;;;;;;;28.00;26.00;;;;;13.89;63.83;99839.72;6096842;28;97106;-62
2022/10/28 01:19:23;;;;;;;;;25.00;22.40;;;;;13.83;64.21;99840.59;6097460;28;96290;-61
2022/10/28 01:22:32;;;;;;;;;27.50;25.25;;;;;13.76;63.09;99842.53;6097132;28;96988;-61
2022/10/28 01:25:58;;;;;;;;;26.60;23.60;;;;;13.69;63.17;99841.72;6086065;28;96323;-61
2022/10/28 01:29:49;;;;;;;;;26.20;24.00;;;;;13.66;62.54;99840.31;6079108;28;97870;-62
2022/10/28 01:33:04;;;;;;;;;28.75;25.00;;;;;13.66;62.32;99834.06;6090498;28;96525;-61
2022/10/28 01:36:13;;;;;;;;;25.25;23.25;;;;;13.49;62.24;99824.78;6095312;28;96437;-62
2022/10/28 01:39:28;;;;;;;;;28.00;25.00;;;;;13.43;62.21;99831.91;6089369;28;96354;-62
2022/10/28 01:42:40;;;;;;;;;26.50;24.50;;;;;13.40;62.29;99835.03;6079013;28;96750;-62
2022/10/28 01:45:52;;;;;;;;;27.00;25.00;;;;;13.42;62.38;99830.25;6095779;28;96299;-61
2022/10/28 01:48:59;;;;;;;;;28.33;25.00;;;;;13.49;62.47;99833.72;6079277;28;97269;-61
2022/10/28 01:52:05;;;;;;;;;29.00;26.60;;;;;13.48;61.91;99840.22;6096526;28;96364;-61
2022/10/28 01:55:13;;;;;;;;;29.00;27.00;;;;;13.43;61.30;99837.31;6097374;28;96322;-61
2022/10/28 01:58:22;;;;;;;;;30.00;29.50;;;;;13.27;60.97;99832.41;6097070;28;96276;-61
2022/10/28 02:01:27;;;;;;;;;29.75;28.75;;;;;13.11;60.77;99835.56;6096849;28;96426;-62
2022/10/28 02:04:33;;;;;;;;;32.75;30.25;;;;;13.00;60.97;99816.22;6095999;28;97172;-61
2022/10/28 02:07:37;;;;;;;;;31.60;30.00;;;;;12.94;61.18;99816.28;6096029;28;96302;-61
2022/10/28 02:10:51;;;;;;;;;34.00;30.50;;;;;12.91;61.23;99812.13;6095350;28;96228;-61
2022/10/28 02:14:05;;;;;;;;;27.60;26.20;;;;;12.90;61.50;99812.34;6078232;28;97127;-62
2022/10/28 02:17:17;;;;;;;;;31.00;29.25;;;;;12.84;61.40;99805.06;6092222;28;96390;-61
2022/10/28 02:20:32;;;;;;;;;33.60;30.00;;;;;12.74;61.58;99807.41;6096550;28;97431;-62
2022/10/28 02:23:43;;;;;;;;;30.00;28.00;;;;;12.70;61.91;99792.66;6093569;28;96361;-62
2022/10/28 02:26:56;;;;;;;;;32.60;30.00;;;;;12.60;62.33;99779.56;6095637;28;96958;-62
2022/10/28 02:30:04;;;;;;;;;31.00;29.00;;;;;12.72;62.53;99790.53;6095557;28;96407;-63
2022/10/28 02:33:12;;;;;;;;;31.33;27.33;;;;;12.74;62.03;99778.47;6075311;28;97789;-62
2022/10/28 02:36:22;;;;;;;;;29.00;26.75;;;;;12.77;62.13;99774.50;6094420;28;96482;-62
2022/10/28 02:39:31;;;;;;;;;29.40;28.00;;;;;12.82;62.07;99772.81;6095394;28;96311;-61
2022/10/28 02:42:41;;;;;;;;;30.00;28.00;;;;;12.87;61.85;99766.75;6077584;28;96822;-62
2022/10/28 02:45:47;;;;;;;;;29.00;27.00;;;;;12.93;62.39;99763.19;6093940;28;98162;-61
2022/10/28 02:48:54;;;;;;;;;27.00;26.00;;;;;12.98;63.03;99769.63;6077784;28;96739;-61
2022/10/28 02:52:02;;;;;;;;;29.50;27.25;;;;;13.02;62.85;99776.25;6092236;28;97082;-62
2022/10/28 02:55:06;;;;;;;;;27.00;25.00;;;;;13.06;63.73;99781.22;6082995;28;96522;-61
2022/10/28 02:58:11;;;;;;;;;27.00;24.00;;;;;13.13;64.49;99779.38;6092737;28;96280;-62
2022/10/28 03:01:14;;;;;;;;;24.00;22.60;;;;;13.22;64.83;99776.19;6099978;28;96480;-62
2022/10/28 03:04:18;;;;;;;;;26.50;25.50;;;;;13.24;63.97;99784.09;6094811;28;96651;-61
2022/10/28 03:07:23;;;;;;;;;25.60;25.00;;;;;13.23;62.89;99779.72;6095201;28;96311;-62
2022/10/28 03:10:26;;;;;;;;;28.60;27.40;;;;;13.14;62.36;99770.19;6087385;28;96568;-61
2022/10/28 03:13:30;;;;;;;;;28.50;26.00;;;;;13.06;61.89;99778.53;6093539;28;96890;-62
2022/10/28 03:16:33;;;;;;;;;26.25;25.00;;;;;12.91;62.25;99765.25;6093479;28;96429;-62
2022/10/28 03:19:36;;;;;;;;;26.20;24.00;;;;;12.85;61.57;99769.66;6093043;28;96339;-61
2022/10/28 03:22:44;;;;;;;;;29.00;28.00;;;;;12.77;61.97;99769.06;6093709;28;96315;-61
2022/10/28 03:25:47;;;;;;;;;25.20;24.00;;;;;12.71;62.32;99770.75;6092642;28;96393;-62
2022/10/28 03:28:51;;;;;;;;;28.00;25.60;;;;;12.69;62.70;99759.34;6094797;28;96285;-61
2022/10/28 03:31:54;;;;;;;;;30.33;27.00;;;;;12.68;62.47;99771.19;6092330;28;96575;-62
2022/10/28 03:34:57;;;;;;;;;29.00;27.00;;;;;12.63;62.17;99767.47;6092683;28;96493;-61
2022/10/28 03:38:02;;;;;;;;;28.00;27.00;;;;;12.60;62.37;99776.84;6093437;28;96380;-63
2022/10/28 03:41:05;;;;;;;;;26.50;24.00;;;;;12.61;62.55;99777.69;6093197;28;97980;-62
2022/10/28 03:44:09;;;;;;;;;25.60;24.00;;;;;12.61;62.41;99778.50;6074869;28;96568;-63
2022/10/28 03:47:12;;;;;;;;;28.60;25.40;;;;;12.64;62.68;99785.38;6095535;28;96292;-61
2022/10/28 03:50:16;;;;;;;;;28.00;27.50;;;;;12.65;62.58;99778.94;6095042;28;96938;-62
2022/10/28 03:53:21;;;;;;;;;26.00;24.00;;;;;12.60;62.63;99771.44;6103761;28;96243;-62
2022/10/28 03:56:29;;;;;;;;;31.75;29.00;;;;;12.49;63.49;99770.22;6095848;28;96236;-62
2022/10/28 03:59:32;;;;;;;;;34.00;30.60;;;;;12.45;63.93;99776.28;6084571;28;96345;-62
2022/10/28 04:02:36;;;;;;;;;33.50;29.50;;;;;12.35;64.47;99770.47;6090731;28;96776;-62
2022/10/28 04:05:39;;;;;;;;;30.00;27.00;;;;;12.29;64.87;99763.19;6112952;28;97568;-62
2022/10/28 04:08:44;;;;;;;;;30.75;28.00;;;;;12.29;64.65;99761.34;6098973;28;96270;-63
2022/10/28 04:11:48;;;;;;;;;32.40;30.00;;;;;12.31;65.92;99758.44;6081883;28;96230;-62
2022/10/28 04:14:52;;;;;;;;;32.25;29.75;;;;;12.33;65.70;99748.22;6100068;28;96566;-62
2022/10/28 04:17:55;;;;;;;;;33.00;29.00;;;;;12.29;65.55;99755.94;6101867;28;96409;-66
2022/10/28 04:20:58;;;;;;;;;35.20;30.80;;;;;12.28;64.98;99753.41;6106143;28;96983;-62
2022/10/28 04:24:03;;;;;;;;;30.40;27.60;;;;;12.29;64.78;99755.09;6105289;28;96602;-62
2022/10/28 04:27:07;;;;;;;;;27.60;26.00;;;;;12.32;64.77;99760.06;6086924;28;96525;-61
2022/10/28 04:30:13;;;;;;;;;31.25;28.25;;;;;12.35;65.60;99751.53;6099678;28;96272;-62
2022/10/28 04:33:16;;;;;;;;;31.20;27.20;;;;;12.44;66.35;99747.56;6096703;28;97109;-62
2022/10/28 04:36:20;;;;;;;;;32.00;29.00;;;;;12.49;65.65;99745.06;6098297;28;97855;-61
2022/10/28 04:39:24;;;;;;;;;34.60;30.00;;;;;12.52;64.87;99739.19;6098554;28;96813;-61
2022/10/28 04:42:28;;;;;;;;;26.80;25.40;;;;;12.50;64.43;99734.03;6097019;28;96580;-62
2022/10/28 04:45:31;;;;;;;;;29.00;28.00;;;;;12.47;64.22;99728.19;6091327;28;96732;-63
2022/10/28 04:48:36;;;;;;;;;31.00;28.00;;;;;12.44;63.67;99723.22;6090985;28;96366;-64
2022/10/28 04:51:39;;;;;;;;;30.75;27.75;;;;;12.37;63.20;99717.81;6071935;28;96664;-62
2022/10/28 04:54:44;;;;;;;;;27.40;25.20;;;;;12.34;63.16;99720.97;6085766;28;96266;-62
2022/10/28 04:57:53;;;;;;;;;29.75;26.75;;;;;12.32;62.99;99716.81;6094465;28;96418;-61
2022/10/28 05:00:57;;;;;;;;;28.60;26.00;;;;;12.26;62.79;99729.31;6078935;28;96404;-62
2022/10/28 05:04:00;;;;;;;;;33.00;30.00;;;;;12.26;62.93;99728.50;6093553;28;96320;-61
2022/10/28 05:07:03;;;;;;;;;34.40;30.60;;;;;12.37;65.20;99725.09;6094456;28;96758;-62
2022/10/28 05:10:10;;;;;;;;;28.00;27.00;;;;;12.51;67.07;99726.75;6092602;28;96373;-62
2022/10/28 05:13:14;;;;;;;;;32.20;29.80;;;;;12.58;65.58;99719.41;6095473;28;96318;-61
2022/10/28 05:16:17;;;;;;;;;35.00;30.40;;;;;12.47;63.49;99722.78;6075594;28;96165;-62
2022/10/28 05:19:20;;;;;;;;;27.75;25.00;;;;;12.35;62.83;99724.50;6079555;28;96479;-62
2022/10/28 05:22:24;;;;;;;;;30.80;29.20;;;;;12.30;63.09;99721.59;6078727;28;96796;-62
2022/10/28 05:25:29;;;;;;;;;30.00;27.00;;;;;12.30;63.10;99721.59;6073014;28;96251;-62
2022/10/28 05:28:32;;;;;;;;;31.00;30.00;;;;;12.29;63.03;99725.34;6080049;28;96192;-62
2022/10/28 05:31:35;;;;;;;;;32.60;30.00;;;;;12.33;62.71;99732.00;6080032;28;96354;-64
2022/10/28 05:34:42;;;;;;;;;30.00;28.50;;;;;12.37;62.67;99730.50;6074367;28;96351;-62
2022/10/28 05:37:45;;;;;;;;;30.80;27.00;;;;;12.41;62.58;99720.97;6074654;28;97292;-62
2022/10/28 05:40:50;;;;;;;;;33.25;28.25;;;;;12.47;61.96;99730.91;6097961;28;96655;-63
2022/10/28 05:43:53;;;;;;;;;30.80;27.20;;;;;12.48;61.79;99722.59;6090325;28;96635;-62
2022/10/28 05:46:57;;;;;;;;;30.80;28.80;;;;;12.53;61.50;99727.34;6090480;28;96458;-62
2022/10/28 05:50:00;;;;;;;;;34.75;30.00;;;;;12.65;61.43;99727.53;6103868;28;96535;-63
2022/10/28 05:53:03;;;;;;;;;31.20;29.40;;;;;12.79;60.93;99716.41;6106104;28;96954;-62
2022/10/28 05:56:08;;;;;;;;;34.00;30.40;;;;;13.09;60.03;99732.09;6096074;28;96540;-61
2022/10/28 05:59:12;;;;;;;;;29.50;27.00;;;;;13.28;59.12;99737.41;6090584;28;97663;-62
2022/10/28 06:02:15;;;;;;;;;32.40;30.00;;;;;13.60;58.25;99731.94;6092401;28;96816;-62
2022/10/28 06:05:19;;;;;;;;;30.00;26.60;;;;;13.98;56.97;99738.06;6105052;28;96814;-62
2022/10/28 06:08:23;;;;;;;;;30.40;29.00;;;;;14.28;56.07;99732.78;6105789;28;96511;-63
2022/10/28 06:11:27;;;;;;;;;33.80;30.00;;;;;14.59;54.71;99729.94;6103803;28;96920;-62
2022/10/28 06:14:31;;;;;;;;;31.00;29.00;;;;;14.97;53.91;99721.53;6095181;28;96469;-62
2022/10/28 06:17:34;;;;;;;;;35.00;30.00;;;;;15.44;52.31;99722.50;6081205;28;96700;-62
2022/10/28 06:20:37;;;;;;;;;36.00;32.00;;;;;16.01;50.86;99722.84;6090996;28;96887;-62
2022/10/28 06:23:40;;;;;;;;;32.40;30.00;;;;;16.96;48.81;99733.34;6097292;28;96423;-64
2022/10/28 06:26:45;;;;;;;;;32.20;29.60;;;;;18.34;45.65;99725.34;6098410;28;96284;-63
2022/10/28 06:29:49;;;;;;;;;34.00;30.00;;;;;19.50;42.96;99727.88;6098718;28;96869;-63
2022/10/28 06:32:52;;;;;;;;;32.50;30.00;;;;;20.73;40.24;99735.56;6099765;28;97020;-62
2022/10/28 06:35:57;;;;;;;;;29.40;28.40;;;;;22.01;38.05;99730.09;6101135;28;96999;-66
2022/10/28 06:39:00;;;;;;;;;29.00;27.25;;;;;23.28;35.59;99736.00;6100300;28;96277;-64
2022/10/28 06:42:06;;;;;;;;;28.40;28.40;;;;;24.43;33.62;99740.09;6102457;28;96880;-63
2022/10/28 06:45:10;;;;;;;;;28.00;27.00;;;;;25.16;32.86;99742.53;6101973;28;96429;-63
2022/10/28 06:48:13;;;;;;;;;27.80;24.20;;;;;25.43;32.53;99737.16;6102025;28;96506;-64
2022/10/28 06:51:16;;;;;;;;;27.00;25.80;;;;;25.63;32.67;99756.22;6102729;28;96834;-64
2022/10/28 06:54:20;;;;;;;;;25.40;23.00;;;;;25.94;32.38;99739.97;6101488;28;96226;-64
2022/10/28 06:57:25;;;;;;;;;27.00;25.00;;;;;26.12;32.49;99743.81;6097516;28;97048;-65
2022/10/28 07:00:32;;;;;;;;;29.00;25.50;;;;;25.85;32.49;99755.63;6101490;28;96307;-64
2022/10/28 07:03:36;;;;;;;;;28.00;26.00;;;;;25.55;32.96;99747.81;6102099;28;96348;-64
2022/10/28 07:06:39;;;;;;;;;31.40;27.40;;;;;25.53;32.44;99745.28;6101402;28;96826;-64
2022/10/28 07:09:43;;;;;;;;;30.00;27.00;;;;;26.35;31.41;99748.38;6100874;28;96334;-65
2022/10/28 07:12:48;;;;;;;;;28.33;27.00;;;;;27.68;30.20;99750.06;6100373;28;96284;-66
2022/10/28 07:15:52;;;;;;;;;27.50;25.50;;;;;29.37;27.46;99746.84;6102392;28;96525;-66
2022/10/28 07:18:56;;;;;;;;;23.00;21.60;;;;;30.46;26.63;99753.00;6084434;28;96834;-67
2022/10/28 07:21:59;;;;;;;;;25.00;23.00;;;;;31.06;25.45;99749.16;6101731;28;96362;-66
2022/10/28 07:25:02;;;;;;;;;25.60;23.60;;;;;31.67;24.85;99753.19;6086390;28;96510;-65
2022/10/28 07:28:07;;;;;;;;;23.60;23.20;;;;;32.02;24.43;99762.06;6116331;28;96258;-64
2022/10/28 07:31:10;;;;;;;;;19.60;19.00;;;;;32.84;23.92;99744.25;6103987;28;96814;-65
2022/10/28 07:34:20;;;;;;;;;25.00;23.00;;;;;33.74;23.03;99754.28;6102036;28;96258;-67
2022/10/28 07:37:29;;;;;;;;;22.20;20.80;;;;;34.69;21.64;99742.19;6105868;28;96272;-65
2022/10/28 07:40:33;;;;;;;;;21.20;20.60;;;;;35.48;21.26;99751.28;6106286;28;96795;-63
2022/10/28 07:43:38;;;;;;;;;17.60;16.60;;;;;36.48;20.24;99741.72;6100550;28;96273;-63
2022/10/28 07:46:42;;;;;;;;;16.00;16.00;;;;;37.68;18.82;99751.28;6085931;28;96786;-63
2022/10/28 07:49:46;;;;;;;;;15.00;14.50;;;;;38.44;17.71;99748.19;6101665;28;96465;-66
2022/10/28 07:52:49;;;;;;;;;16.00;15.00;;;;;38.86;17.31;99751.38;6099064;28;96961;-61
2022/10/28 07:55:57;;;;;;;;;15.20;14.00;;;;;38.84;17.83;99755.81;6081539;28;96651;-64
2022/10/28 07:59:01;;;;;;;;;18.60;16.00;;;;;38.84;17.04;99747.34;6098156;28;96055;-65
2022/10/28 08:02:05;;;;;;;;;16.40;15.40;;;;;39.48;17.31;99739.38;6097064;28;96233;-64
2022/10/28 08:05:09;;;;;;;;;16.00;15.40;;;;;40.17;16.31;99738.03;6111499;28;96545;-64
2022/10/28 08:08:12;;;;;;;;;17.25;17.00;;;;;41.19;15.55;99738.56;6095105;28;96504;-64
2022/10/28 08:11:18;;;;;;;;;18.75;16.00;;;;;42.19;15.28;99734.16;6094492;28;96616;-65
2022/10/28 08:14:23;;;;;;;;;16.00;15.40;;;;;42.80;13.92;99734.56;6097250;28;96483;-65
2022/10/28 08:17:27;;;;;;;;;16.00;15.00;;;;;43.40;14.24;99728.31;6096000;28;96491;-64
2022/10/28 08:20:30;;;;;;;;;15.00;15.00;;;;;44.01;13.19;99723.53;6097140;28;96449;-61
2022/10/28 08:23:34;;;;;;;;;16.00;15.00;;;;;44.63;13.18;99727.88;6096605;28;96558;-65
2022/10/28 08:26:37;;;;;;;;;14.60;13.60;;;;;45.14;12.85;99720.94;6096690;28;96556;-65
2022/10/28 08:29:42;;;;;;;;;14.60;14.00;;;;;45.60;12.35;99715.13;6097677;28;96367;-63
2022/10/28 08:32:45;;;;;;;;;15.40;14.40;;;;;45.69;12.37;99718.22;6096851;28;96508;-63
2022/10/28 08:35:51;;;;;;;;;14.00;13.00;;;;;45.56;12.34;99716.44;6096856;28;96574;-63
2022/10/28 08:38:54;;;;;;;;;15.00;14.25;;;;;45.40;12.71;99720.03;6096913;28;96241;-64
2022/10/28 08:42:17;;;;;;;;;14.00;14.00;;;;;45.67;12.05;99714.97;6063325;28;96889;-62
2022/10/28 08:45:30;;;;;;;;;15.00;14.00;;;;;46.00;12.29;99709.41;6097370;28;96177;-63
2022/10/28 08:48:35;;;;;;;;;16.20;16.00;;;;;46.19;12.11;99707.78;6099814;28;96899;-65
2022/10/28 08:51:48;;;;;;;;;21.00;18.00;;;;;46.40;11.46;99710.13;6100598;28;96240;-64
2022/10/28 08:54:55;;;;;;;;;16.80;15.00;;;;;46.24;11.66;99698.69;6100260;28;96294;-68
2022/10/28 08:58:03;;;;;;;;;17.60;16.60;;;;;46.25;11.38;99700.31;6099460;28;96553;-65
2022/10/28 09:01:16;;;;;;;;;19.00;17.60;;;;;46.35;11.70;99704.94;6100368;28;96246;-65
2022/10/28 09:04:26;;;;;;;;;20.50;18.75;;;;;46.48;11.51;99700.16;6100129;28;96301;-64
2022/10/28 09:07:33;;;;;;;;;17.00;16.00;;;;;46.51;11.65;99708.63;6099197;28;96743;-63
2022/10/28 09:10:59;;;;;;;;;19.00;18.00;;;;;46.19;11.54;99700.03;6098474;28;96273;-63
2022/10/28 09:14:26;;;;;;;;;16.00;15.00;;;;;46.19;12.14;99694.31;6098454;28;96415;-63
2022/10/28 09:17:41;;;;;;;;;18.00;16.60;;;;;45.91;11.87;99690.06;6097774;28;96646;-63
2022/10/28 09:20:52;;;;;;;;;17.00;16.00;;;;;45.37;12.63;99689.53;6102562;28;96626;-64
2022/10/28 09:23:57;;;;;;;;;15.00;15.00;;;;;44.80;12.56;99684.94;6108557;28;96328;-63
2022/10/28 09:27:09;;;;;;;;;15.40;13.40;;;;;44.82;13.05;99695.84;6100774;28;96800;-63
2022/10/28 09:30:30;;;;;;;;;12.00;12.00;;;;;44.97;13.47;99697.22;6100167;28;96327;-64
2022/10/28 09:33:47;;;;;;;;;15.00;13.00;;;;;44.86;12.93;99668.16;6099983;28;98318;-64
2022/10/28 09:36:54;;;;;;;;;13.00;12.40;;;;;45.04;12.88;99680.03;6095032;28;97067;-64
2022/10/28 09:40:02;;;;;;;;;13.00;13.00;;;;;45.12;12.82;99672.97;6081509;28;98452;-65
2022/10/28 09:43:13;;;;;;;;;13.75;13.00;;;;;45.25;13.19;99679.63;6099298;28;96350;-63
2022/10/28 09:46:18;;;;;;;;;10.00;9.00;;;;;45.41;12.94;99687.44;6100503;28;96248;-65
2022/10/28 09:49:28;;;;;;;;;10.00;9.20;;;;;45.34;12.73;99686.78;6086360;28;96405;-63
2022/10/28 09:52:38;;;;;;;;;9.00;8.00;;;;;45.28;12.87;99669.41;6099590;28;96447;-63
2022/10/28 09:55:42;;;;;;;;;8.00;7.00;;;;;45.41;12.76;99673.22;6098551;28;96540;-63
2022/10/28 09:58:47;;;;;;;;;9.80;9.80;;;;;45.57;13.17;99670.44;6099040;28;96376;-65
2022/10/28 10:01:50;;;;;;;;;8.20;7.80;;;;;45.64;12.57;99678.03;6098939;28;96715;-63
2022/10/28 10:04:56;;;;;;;;;11.00;9.60;;;;;45.67;12.65;99675.09;6098274;28;96566;-63
2022/10/28 10:08:04;;;;;;;;;9.00;9.00;;;;;45.31;12.99;99667.72;6109152;28;96987;-64
2022/10/28 10:11:17;;;;;;;;;11.00;10.00;;;;;45.22;13.57;99666.25;6102480;28;97496;-63
2022/10/28 10:14:26;;;;;;;;;8.60;8.40;;;;;44.63;13.41;99676.66;6099357;28;96365;-63
2022/10/28 10:17:35;;;;;;;;;7.00;7.00;;;;;44.18;14.07;99671.28;6105424;28;96464;-62
2022/10/28 10:20:51;;;;;;;;;7.00;7.00;;;;;43.81;14.05;99668.56;6108925;28;96413;-63
2022/10/28 10:23:55;;;;;;;;;9.00;8.00;;;;;43.62;14.39;99664.38;6100040;28;96303;-64
2022/10/28 10:27:02;;;;;;;;;9.00;9.00;;;;;43.81;14.32;99663.69;6099160;28;96423;-64
2022/10/28 10:30:18;;;;;;;;;10.00;10.00;;;;;43.96;14.37;99667.97;6099108;28;97509;-64
2022/10/28 10:33:25;;;;;;;;;9.00;9.00;;;;;44.28;14.05;99673.19;6075358;28;96142;-63
2022/10/28 10:36:31;;;;;;;;;8.40;8.00;;;;;44.27;13.87;99657.38;6088862;28;97292;-64
2022/10/28 10:39:37;;;;;;;;;9.00;8.80;;;;;44.31;14.33;99665.84;6099486;28;96810;-64
2022/10/28 10:42:40;;;;;;;;;9.60;9.00;;;;;44.45;14.10;99659.91;6097421;28;96889;-63
2022/10/28 10:46:05;;;;;;;;;9.00;8.60;;;;;44.58;13.32;99666.59;6097397;28;96416;-63
2022/10/28 10:49:14;;;;;;;;;10.00;10.00;;;;;44.72;13.48;99649.28;6096919;28;96411;-63
2022/10/28 10:52:24;;;;;;;;;12.00;11.75;;;;;44.76;13.87;99643.56;6089439;28;96325;-64
2022/10/28 10:55:40;;;;;;;;;9.00;9.00;;;;;44.79;13.78;99637.00;6091483;28;96493;-64
2022/10/28 10:58:50;;;;;;;;;10.00;10.00;;;;;44.91;14.00;99633.53;6097652;28;96362;-64
2022/10/28 11:01:55;;;;;;;;;9.00;9.00;;;;;44.69;14.16;99629.44;6099213;28;96313;-63
2022/10/28 11:05:03;;;;;;;;;8.00;8.00;;;;;44.52;14.35;99644.78;6091210;28;96331;-64
2022/10/28 11:08:26;;;;;;;;;11.20;10.00;;;;;44.54;14.45;99643.09;6096647;28;96329;-65
2022/10/28 11:11:34;;;;;;;;;9.00;8.80;;;;;44.03;14.57;99642.31;6096259;28;96105;-64
2022/10/28 11:14:38;;;;;;;;;11.60;10.00;;;;;43.84;14.76;99636.47;6097280;28;96494;-65
2022/10/28 11:17:55;;;;;;;;;10.00;10.00;;;;;44.04;14.47;99631.72;6097421;28;96438;-64
2022/10/28 11:21:06;;;;;;;;;8.50;7.00;;;;;44.35;13.86;99636.13;6097703;28;96445;-65
2022/10/28 11:24:29;;;;;;;;;9.00;8.00;;;;;44.37;14.28;99633.66;6098350;28;96335;-63
2022/10/28 11:27:47;;;;;;;;;8.00;8.00;;;;;44.16;14.55;99628.28;6101186;28;96321;-64
2022/10/28 11:31:13;;;;;;;;;8.60;7.00;;;;;43.64;14.32;99613.66;6089357;28;96302;-66
2022/10/28 11:34:35;;;;;;;;;8.00;8.00;;;;;43.39;14.83;99618.81;6089722;28;96269;-63
2022/10/28 11:37:51;;;;;;;;;9.00;8.00;;;;;43.40;14.78;99621.22;6102149;28;96237;-65
2022/10/28 11:41:10;;;;;;;;;7.00;7.00;;;;;43.39;14.92;99613.94;6088809;28;96309;-67
2022/10/28 11:44:30;;;;;;;;;8.50;7.75;;;;;43.36;14.49;99623.31;6099988;28;96587;-64
2022/10/28 11:47:56;;;;;;;;;9.75;8.00;;;;;43.33;14.64;99609.97;6101742;28;96372;-64
2022/10/28 11:51:09;;;;;;;;;7.67;6.67;;;;;43.10;14.88;99619.19;6101790;28;96833;-63
2022/10/28 11:54:31;;;;;;;;;6.80;6.80;;;;;42.83;15.05;99612.56;6102224;28;96191;-64
2022/10/28 11:57:52;;;;;;;;;7.50;7.50;;;;;42.52;15.01;99620.13;6098224;28;96653;-63
2022/10/28 12:01:07;;;;;;;;;9.00;8.40;;;;;42.55;15.14;99612.81;6101365;28;96316;-65
2022/10/28 12:04:31;;;;;;;;;11.00;10.00;;;;;42.47;15.53;99602.78;6076601;28;96701;-62
2022/10/28 12:07:57;;;;;;;;;11.20;11.20;;;;;42.45;15.68;99608.06;6084114;28;96444;-64
2022/10/28 12:11:21;;;;;;;;;11.00;10.25;;;;;42.25;15.79;99590.78;6099359;28;96961;-65
2022/10/28 12:14:35;;;;;;;;;12.80;12.00;;;;;41.92;16.02;99593.09;6087037;28;96299;-63
2022/10/28 12:17:46;;;;;;;;;12.00;12.00;;;;;41.08;16.20;99592.28;6082156;28;96840;-63
2022/10/28 12:20:59;;;;;;;;;11.00;10.00;;;;;40.32;17.05;99585.53;6073902;28;97960;-64
2022/10/28 12:24:10;;;;;;;;;9.00;9.00;;;;;38.92;17.61;99588.31;6086299;28;96350;-64
2022/10/28 12:27:18;;;;;;;;;9.25;8.25;;;;;37.87;18.66;99586.25;6094566;28;96413;-62
2022/10/28 12:30:26;;;;;;;;;11.00;11.00;;;;;37.05;20.11;99590.88;6072219;28;96672;-62
2022/10/28 12:33:38;;;;;;;;;11.00;9.00;;;;;36.27;20.68;99575.66;6081084;28;96324;-63
2022/10/28 12:36:46;;;;;;;;;10.25;9.25;;;;;35.79;21.17;99576.41;6062435;28;96274;-62
2022/10/28 12:39:59;;;;;;;;;10.00;9.00;;;;;35.47;21.67;99575.78;6079187;28;96462;-63
2022/10/28 12:43:10;;;;;;;;;10.00;9.40;;;;;35.34;22.14;99577.09;6084117;28;96514;-64
2022/10/28 12:46:24;;;;;;;;;11.00;11.00;;;;;35.00;22.46;99571.19;6083919;28;96472;-63
2022/10/28 12:49:38;;;;;;;;;9.80;9.00;;;;;34.31;23.31;99564.38;6079614;28;97095;-64
2022/10/28 12:52:51;;;;;;;;;10.75;10.00;;;;;33.78;23.85;99560.22;6064087;28;96785;-64
2022/10/28 12:55:59;;;;;;;;;10.00;9.40;;;;;33.55;24.28;99569.56;6083984;28;96552;-61
2022/10/28 12:59:11;;;;;;;;;12.00;11.00;;;;;33.49;24.53;99569.00;6080185;28;96263;-62
2022/10/28 13:02:21;;;;;;;;;11.40;10.00;;;;;33.26;24.87;99548.38;6084572;28;96313;-62
2022/10/28 13:05:28;;;;;;;;;12.60;10.60;;;;;33.15;25.14;99564.00;6086579;28;96430;-62
2022/10/28 13:08:51;;;;;;;;;10.80;9.00;;;;;32.99;25.20;99553.56;6083038;28;96849;-63
2022/10/28 13:12:41;;;;;;;;;10.75;10.00;;;;;32.75;26.51;99558.41;6084764;28;96310;-61
2022/10/28 13:16:10;;;;;;;;;12.00;11.20;;;;;32.70;26.21;99556.69;6082240;28;98033;-61
2022/10/28 13:19:33;;;;;;;;;13.00;12.00;;;;;32.59;26.58;99564.72;6103949;28;96302;-62
2022/10/28 13:22:52;;;;;;;;;13.00;13.00;;;;;32.52;26.92;99558.91;6105178;28;96300;-62
2022/10/28 13:26:09;;;;;;;;;12.50;10.50;;;;;32.35;26.54;99561.97;6070736;28;98411;-64
2022/10/28 13:29:22;;;;;;;;;12.33;11.00;;;;;32.24;27.16;99561.63;6090765;28;96510;-61
2022/10/28 13:32:32;;;;;;;;;12.00;10.60;;;;;31.98;27.25;99549.94;6100270;28;96709;-65
2022/10/28 13:35:43;;;;;;;;;12.00;11.00;;;;;31.57;28.02;99553.72;6084462;28;96358;-61
2022/10/28 13:38:53;;;;;;;;;15.00;13.00;;;;;31.39;27.90;99529.94;6102148;28;96268;-61
2022/10/28 13:42:53;;;;;;;;;16.00;13.00;;;;;31.10;28.29;99546.78;6092802;28;96869;-60
2022/10/28 13:45:57;;;;;;;;;11.00;10.00;;;;;30.62;29.75;99550.09;6087962;28;96409;-61
2022/10/28 13:49:25;;;;;;;;;27.60;26.60;;;;;30.26;29.73;99547.84;6101559;28;96269;-62
2022/10/28 13:52:30;;;;;;;;;29.20;28.20;;;;;30.09;30.42;99546.00;6102097;28;96277;-62
2022/10/28 13:55:43;;;;;;;;;23.20;20.60;;;;;29.78;31.04;99549.03;6082057;28;96379;-61
2022/10/28 13:58:56;;;;;;;;;17.40;17.40;;;;;29.40;32.40;99553.72;6100533;28;96577;-61
2022/10/28 14:02:13;;;;;;;;;15.80;14.00;;;;;29.14;32.77;99548.97;6101448;28;96362;-63
2022/10/28 14:05:54;;;;;;;;;16.00;15.40;;;;;29.02;33.06;99539.69;6101456;28;96515;-63
2022/10/28 14:08:59;;;;;;;;;19.00;18.00;;;;;29.07;32.98;99543.13;6100591;28;96155;-66
2022/10/28 14:12:11;;;;;;;;;16.00;15.00;;;;;29.17;32.88;99545.56;6100908;28;96410;-64
2022/10/28 14:15:24;;;;;;;;;15.80;15.00;;;;;29.06;32.83;99543.44;6100023;28;96357;-64
2022/10/28 14:18:28;;;;;;;;;15.00;15.00;;;;;28.84;33.71;99545.25;6100216;28;96193;-64
2022/10/28 14:21:52;;;;;;;;;15.20;14.00;;;;;28.65;34.14;99552.22;6100530;28;96384;-63
2022/10/28 14:25:43;;;;;;;;;18.40;18.00;;;;;28.32;34.81;99552.66;6100497;28;96274;-63
2022/10/28 14:28:55;;;;;;;;;17.00;15.20;;;;;28.14;34.99;99550.97;6100370;28;96333;-63
2022/10/28 14:31:58;;;;;;;;;16.60;15.60;;;;;28.05;34.89;99552.06;6100192;28;96339;-66